Nova Serrana, Brazil
Current Conditions -  °F | °C
As of 10:00 PM on Wednesday 28 Jan 2015 (Local Time) from SBBH Reporting Station
Overcast Overcast  
Wind Chill: 70°   Ceiling: 4500
Heat Index: 70°   Visibility: 6mi
Dew Point: 64°   Wind: 5mph
Humidity: 83%   Direction: 360°N
Pressure: 30"   Gusts: NA
Location:  19.88°S, 44.98°W
Report Text: SBBH 290000Z 36004KT 9999 BKN045 OVC100 21/18 Q1016 RETS
Loading
Personal Weather Stations






























Interactive Weather Map New forecast layout! Learn more

10-Day Weather Forecast

Advertisements
Track Severe Weather on mobile